Spirit Lake, IA

1:48 PM CST on February 13, 2016 (GMT -0600)
Dickinson Co. Courthouse | | Change Station
CLOSE
Current Station
Personal Weather Station
Location: Spirit Lake, IA
Elevation: 1470 ft
Nearby Weather Stations
Active Advisory: Winter Weather Advisory

Elev 1470 ft 43.42 °N, 95.10 °W | Updated 9 seconds ago

Overcast
Overcast
6.3 °F
Feels Like -4 °F
N
5.7
Wind Variable Wind from SE
Gusts 10.4 mph

Today
High -- | Low -- °F
--% Chance of Precip.
Yesterday
High -- | Low -- °F
Precip. -- in
Pressure 30.43 in
Visibility 10.0 miles
Clouds Overcast 6500 ft
Windchill -4 °F
Dew Point -3 °F
Humidity 64%
Rainfall 0.00 in
Snow Depth Not available.
7:22 AM 5:47 PM
Waxing Crescent, 33% visible
METAR KMJQ 131932Z AUTO 14013KT 10SM OVC065 M13/M19 A3043 RMK AO2
Pressure 30.43 in
Visibility 10.0 miles
Clouds Overcast 6500 ft
Windchill -4 °F
Dew Point -3 °F
Humidity 64%
Rainfall 0.00 in
Snow Depth Not available.
7:22 AM 5:47 PM
Waxing Crescent, 33% visible
METAR KMJQ 131932Z AUTO 14013KT 10SM OVC065 M13/M19 A3043 RMK AO2

10-Day Weather Forecast

Almanac

Astronomy

Feb. 13, 2016 Rise Set
Actual Time
Civil Twilight
Nautical Twilight
Astronomical Twilight
Moon
Length of Visible Light
Length of Day
Tomorrow will be .
, % of the Moon is Illuminated

Today's Extremes

State Highs State Lows

Community

WunderPhotos

Upload Photos

1,892,642 photos uploaded!

WunderBlog® & News

Nearby

Air Quality

  Air Quality AQ Index Pollutant
Not available.

Snow Depth

Station Depth Elevation

Earthquake Activity

City Distance Mag. Time & Date
Minimum magnitude displayed is 2.5.

Coastal Water Temperatures

Place Temperature

Stations

Nearby Weather Stations

Station Location Temp. Windchill Dew Point Humidity Wind Precip. Elev Updated Type
                   

Watches & Warnings

Winter Weather Advisory
Issued: 8:42 AM CST Feb. 13, 2016 – National Weather Service

... Winter Weather Advisory remains in effect from 9 PM this
evening to noon CST Sunday...
... Wind Chill Advisory will expire at 9 am CST this morning...

* timing... snow and blowing snow threat tonight into Sunday
morning.

* Accumulations... 3 to 6 inches... with highest amounts near and
north of Interstate 90.

* Wind and visibility... southeast winds 15 to 30 mph should cause
visibilities to lower to less than a half mile in snow and
blowing snow. Brief whiteout conditions will be possible.

* Wind chill values... wind chill values will remain below zero
through tonight... then gradually climb above zero Sunday
morning.

Precautionary/preparedness actions...

A Winter Weather Advisory for snow and blowing snow means that
visibilities will be limited due to a combination of falling and
blowing snow. Use caution when traveling... especially in open
areas.